Time;durP1;ratioP1;P1;durP2;ratioP2;P2;SDS_P1;SDS_P2;PMS_P1;PMS_P2;Temp;Humidity;BMP_temperature;BMP_pressure;BME280_temperature;BME280_humidity;BME280_pressure;Samples;Min_cycle;Max_cycle;Signal;HPM_P1;HPM_P2
2021/06/24 00:00:56;;;;;;;8.60;7.30;;;;;;;;;;5092067;28;20082;-71
2021/06/24 00:03:26;;;;;;;9.25;7.30;;;;;;;;;;5090563;28;20024;-71
2021/06/24 00:05:52;;;;;;;8.75;7.07;;;;;;;;;;5091698;28;20024;-71
2021/06/24 00:08:20;;;;;;;8.98;7.28;;;;;;;;;;5104733;28;20020;-71
2021/06/24 00:10:46;;;;;;;8.68;7.78;;;;;;;;;;5101869;28;20028;-71
2021/06/24 00:13:12;;;;;;;8.65;7.47;;;;;;;;;;5091244;28;20486;-71
2021/06/24 00:15:38;;;;;;;11.05;7.03;;;;;;;;;;5090805;28;20040;-71
2021/06/24 00:18:05;;;;;;;7.75;7.00;;;;;;;;;;5091305;28;20024;-71
2021/06/24 00:20:31;;;;;;;9.05;7.78;;;;;;;;;;5091028;28;20098;-71
2021/06/24 00:22:57;;;;;;;9.25;7.38;;;;;;;;;;5091857;28;20108;-71
2021/06/24 00:25:23;;;;;;;9.10;7.03;;;;;;;;;;5091705;28;20047;-71
2021/06/24 00:27:48;;;;;;;10.98;7.90;;;;;;;;;;5092385;28;20020;-71
2021/06/24 00:30:15;;;;;;;9.50;7.25;;;;;;;;;;5091261;28;20026;-71
2021/06/24 00:32:40;;;;;;;8.98;7.78;;;;;;;;;;5090853;28;20063;-71
2021/06/24 00:35:06;;;;;;;9.00;8.10;;;;;;;;;;5093716;28;20060;-71
2021/06/24 00:37:33;;;;;;;8.95;7.57;;;;;;;;;;5091261;28;20493;-71
2021/06/24 00:39:59;;;;;;;9.25;7.38;;;;;;;;;;5090769;28;20486;-71
2021/06/24 00:42:29;;;;;;;9.57;8.15;;;;;;;;;;5090492;28;20022;-71
2021/06/24 00:44:55;;;;;;;11.38;7.65;;;;;;;;;;5090423;28;20028;-71
2021/06/24 00:47:21;;;;;;;11.60;8.32;;;;;;;;;;5090314;28;20352;-71
2021/06/24 00:49:47;;;;;;;11.27;7.57;;;;;;;;;;5090199;28;20035;-71
2021/06/24 00:52:12;;;;;;;9.88;7.72;;;;;;;;;;5090655;28;20028;-71
2021/06/24 00:54:38;;;;;;;9.48;7.50;;;;;;;;;;5090301;28;20425;-71
2021/06/24 00:57:06;;;;;;;7.90;7.10;;;;;;;;;;5090960;28;20065;-71
2021/06/24 00:59:34;;;;;;;8.60;7.63;;;;;;;;;;5090988;28;20036;-71
2021/06/24 01:01:59;;;;;;;9.20;7.75;;;;;;;;;;5090674;28;20115;-71
2021/06/24 01:04:25;;;;;;;8.93;7.45;;;;;;;;;;5090789;28;20111;-71
2021/06/24 01:06:52;;;;;;;8.73;7.50;;;;;;;;;;5092455;28;20027;-71
2021/06/24 01:09:19;;;;;;;9.45;7.85;;;;;;;;;;5112979;28;20460;-71
2021/06/24 01:11:46;;;;;;;8.85;7.43;;;;;;;;;;5094716;28;20084;-71
2021/06/24 01:14:12;;;;;;;8.48;7.43;;;;;;;;;;5094380;28;20425;-71
2021/06/24 01:16:40;;;;;;;8.45;7.57;;;;;;;;;;5093634;28;20479;-71
2021/06/24 01:19:07;;;;;;;9.70;8.48;;;;;;;;;;5093363;28;20421;-71
2021/06/24 01:21:33;;;;;;;8.20;7.28;;;;;;;;;;5093240;28;20031;-71
2021/06/24 01:23:59;;;;;;;9.43;7.53;;;;;;;;;;5094704;28;20379;-71
2021/06/24 01:26:25;;;;;;;9.82;8.20;;;;;;;;;;5092885;28;20032;-72
2021/06/24 01:28:51;;;;;;;9.93;8.50;;;;;;;;;;5094114;28;20035;-71
2021/06/24 01:31:20;;;;;;;8.77;7.88;;;;;;;;;;5093756;28;20167;-71
2021/06/24 01:33:47;;;;;;;8.80;7.72;;;;;;;;;;5093786;28;20027;-71
2021/06/24 01:36:13;;;;;;;9.05;8.05;;;;;;;;;;5104394;28;20051;-71
2021/06/24 01:38:43;;;;;;;9.75;8.00;;;;;;;;;;5093466;28;20027;-72
2021/06/24 01:41:13;;;;;;;10.52;8.13;;;;;;;;;;5093523;28;20035;-72
2021/06/24 01:43:42;;;;;;;11.52;8.63;;;;;;;;;;5095039;28;20028;-71
2021/06/24 01:46:07;;;;;;;10.18;8.00;;;;;;;;;;5094464;28;20028;-71
2021/06/24 01:48:33;;;;;;;10.50;8.45;;;;;;;;;;5094525;28;20028;-74
2021/06/24 01:51:03;;;;;;;10.25;8.00;;;;;;;;;;5094055;28;20028;-72
2021/06/24 01:53:28;;;;;;;9.27;7.75;;;;;;;;;;5080739;28;20491;-71
2021/06/24 01:55:56;;;;;;;7.43;6.63;;;;;;;;;;5093187;28;20046;-71
2021/06/24 01:58:23;;;;;;;9.18;7.93;;;;;;;;;;5092820;28;20425;-72
2021/06/24 02:00:51;;;;;;;10.10;7.38;;;;;;;;;;5093099;28;20012;-71
2021/06/24 02:03:19;;;;;;;9.30;8.23;;;;;;;;;;5093529;28;20016;-71
2021/06/24 02:05:48;;;;;;;9.55;8.15;;;;;;;;;;5094139;28;20383;-71
2021/06/24 02:08:19;;;;;;;8.52;7.53;;;;;;;;;;5105630;28;20031;-71
2021/06/24 02:10:45;;;;;;;10.18;7.95;;;;;;;;;;5105288;28;20036;-71
2021/06/24 02:13:11;;;;;;;11.73;7.47;;;;;;;;;;5094346;28;20494;-71
2021/06/24 02:15:37;;;;;;;8.90;8.00;;;;;;;;;;5092777;28;20036;-71
2021/06/24 02:18:03;;;;;;;10.05;7.82;;;;;;;;;;5092564;28;20032;-71
2021/06/24 02:20:29;;;;;;;9.30;8.18;;;;;;;;;;5093638;28;20027;-71
2021/06/24 02:22:55;;;;;;;9.10;8.20;;;;;;;;;;5093339;28;20032;-71
2021/06/24 02:25:21;;;;;;;9.85;8.05;;;;;;;;;;5092756;28;20030;-71
2021/06/24 02:27:46;;;;;;;8.98;8.07;;;;;;;;;;5092075;28;20047;-71
2021/06/24 02:30:13;;;;;;;10.45;8.10;;;;;;;;;;5092334;28;20028;-71
2021/06/24 02:32:39;;;;;;;9.10;7.68;;;;;;;;;;5093004;28;20024;-71
2021/06/24 02:35:07;;;;;;;9.65;7.72;;;;;;;;;;5099222;28;20326;-71
2021/06/24 02:37:32;;;;;;;8.93;8.02;;;;;;;;;;5094507;28;20027;-71
2021/06/24 02:39:58;;;;;;;10.52;8.50;;;;;;;;;;5092144;28;20028;-71
2021/06/24 02:42:24;;;;;;;10.13;8.70;;;;;;;;;;5092879;28;20035;-71
2021/06/24 02:44:50;;;;;;;9.80;8.80;;;;;;;;;;5092200;28;20371;-71
2021/06/24 02:47:16;;;;;;;10.57;8.70;;;;;;;;;;5090378;28;20047;-71
2021/06/24 02:49:41;;;;;;;10.50;8.52;;;;;;;;;;5091266;28;20028;-71
2021/06/24 02:52:08;;;;;;;9.77;8.77;;;;;;;;;;5091847;28;20031;-72
2021/06/24 02:54:33;;;;;;;11.77;8.40;;;;;;;;;;5092683;28;20111;-71
2021/06/24 02:57:00;;;;;;;9.25;8.30;;;;;;;;;;5091376;28;20123;-71
2021/06/24 02:59:26;;;;;;;8.77;7.88;;;;;;;;;;5091907;28;20032;-71
2021/06/24 03:01:52;;;;;;;11.38;8.45;;;;;;;;;;5091399;28;20054;-71
2021/06/24 03:04:22;;;;;;;9.23;8.20;;;;;;;;;;5091747;28;20490;-71
2021/06/24 03:06:48;;;;;;;9.10;8.07;;;;;;;;;;5091472;28;20032;-71
2021/06/24 03:09:14;;;;;;;8.95;7.50;;;;;;;;;;5092515;28;20372;-71
2021/06/24 03:11:40;;;;;;;10.38;8.85;;;;;;;;;;5092769;28;20028;-71
2021/06/24 03:14:05;;;;;;;10.80;8.68;;;;;;;;;;5092402;28;20573;-71
2021/06/24 03:16:31;;;;;;;11.98;8.70;;;;;;;;;;5090987;28;20127;-71
2021/06/24 03:18:56;;;;;;;11.30;8.52;;;;;;;;;;5091548;28;20383;-71
2021/06/24 03:21:22;;;;;;;11.40;8.68;;;;;;;;;;5091721;28;20147;-71
2021/06/24 03:23:48;;;;;;;12.68;9.07;;;;;;;;;;5091439;28;20043;-71
2021/06/24 03:26:14;;;;;;;10.40;8.32;;;;;;;;;;5091158;28;20020;-71
2021/06/24 03:28:39;;;;;;;11.70;8.05;;;;;;;;;;5092002;28;20379;-71
2021/06/24 03:31:05;;;;;;;13.40;9.20;;;;;;;;;;5091291;28;20035;-71
2021/06/24 03:33:31;;;;;;;11.75;8.48;;;;;;;;;;5091209;28;20020;-71
2021/06/24 03:35:56;;;;;;;11.02;9.13;;;;;;;;;;5093986;28;20123;-71
2021/06/24 03:38:22;;;;;;;9.82;8.30;;;;;;;;;;5090302;28;20057;-71
2021/06/24 03:40:47;;;;;;;11.73;9.27;;;;;;;;;;5091119;28;20028;-71
2021/06/24 03:43:13;;;;;;;10.88;9.02;;;;;;;;;;5090960;28;20081;-71
2021/06/24 03:45:40;;;;;;;11.48;9.18;;;;;;;;;;5091091;28;20020;-71
2021/06/24 03:48:06;;;;;;;9.80;8.48;;;;;;;;;;5091367;28;20042;-71
2021/06/24 03:50:32;;;;;;;9.98;8.77;;;;;;;;;;5091522;28;20035;-71
2021/06/24 03:52:58;;;;;;;9.57;8.57;;;;;;;;;;5091134;28;20027;-71
2021/06/24 03:55:36;;;;;;;10.00;8.93;;;;;;;;;;5091203;28;20035;-71
2021/06/24 03:58:03;;;;;;;10.45;8.00;;;;;;;;;;5091005;28;20038;-71
2021/06/24 04:00:29;;;;;;;8.75;7.57;;;;;;;;;;5090656;28;20059;-71
2021/06/24 04:02:54;;;;;;;10.40;8.10;;;;;;;;;;5090521;28;20071;-71
2021/06/24 04:05:20;;;;;;;11.90;8.85;;;;;;;;;;5092248;28;20024;-71
2021/06/24 04:07:45;;;;;;;10.77;9.10;;;;;;;;;;5094458;28;20027;-71
2021/06/24 04:10:12;;;;;;;11.55;8.80;;;;;;;;;;5090765;28;20024;-71
2021/06/24 04:12:38;;;;;;;12.32;9.43;;;;;;;;;;5090886;28;20020;-71
2021/06/24 04:15:04;;;;;;;13.48;9.32;;;;;;;;;;5090847;28;20395;-71
2021/06/24 04:17:30;;;;;;;11.13;9.40;;;;;;;;;;5091204;28;20474;-71
2021/06/24 04:19:55;;;;;;;16.27;10.52;;;;;;;;;;5091300;28;20016;-71
2021/06/24 04:22:21;;;;;;;10.88;9.50;;;;;;;;;;5091107;28;20134;-71
2021/06/24 04:24:47;;;;;;;10.27;9.18;;;;;;;;;;5088786;28;20036;-71
2021/06/24 04:27:12;;;;;;;13.20;10.15;;;;;;;;;;5073733;28;20028;-72
2021/06/24 04:29:38;;;;;;;11.20;9.30;;;;;;;;;;5070364;28;20025;-71
2021/06/24 04:32:03;;;;;;;11.32;9.43;;;;;;;;;;5079286;28;20229;-71
2021/06/24 04:34:29;;;;;;;11.75;9.68;;;;;;;;;;5091268;28;20360;-71
2021/06/24 04:36:55;;;;;;;10.52;9.13;;;;;;;;;;5090125;28;20063;-71
2021/06/24 04:39:20;;;;;;;15.98;9.25;;;;;;;;;;5090825;28;20054;-71
2021/06/24 04:41:45;;;;;;;10.80;9.65;;;;;;;;;;5092477;28;20020;-71
2021/06/24 04:44:11;;;;;;;10.45;8.73;;;;;;;;;;5094341;28;20020;-72
2021/06/24 04:46:36;;;;;;;10.68;9.15;;;;;;;;;;5094057;28;20043;-73
2021/06/24 04:49:03;;;;;;;10.50;9.15;;;;;;;;;;5094178;28;20045;-73
2021/06/24 04:51:28;;;;;;;11.85;9.27;;;;;;;;;;5095142;28;20024;-73
2021/06/24 04:53:54;;;;;;;11.68;8.70;;;;;;;;;;5095025;28;20027;-73
2021/06/24 04:56:19;;;;;;;9.60;8.65;;;;;;;;;;5094232;28;20047;-73
2021/06/24 04:58:45;;;;;;;8.82;7.93;;;;;;;;;;5099866;28;20394;-73
2021/06/24 05:01:11;;;;;;;11.80;8.60;;;;;;;;;;5101299;28;20020;-72
2021/06/24 05:03:36;;;;;;;11.90;9.75;;;;;;;;;;5093572;28;20514;-73
2021/06/24 05:06:04;;;;;;;10.40;8.45;;;;;;;;;;5093407;28;20020;-72
2021/06/24 05:08:33;;;;;;;10.48;9.02;;;;;;;;;;5093370;28;20142;-73
2021/06/24 05:10:59;;;;;;;12.02;8.35;;;;;;;;;;5093973;28;20387;-73
2021/06/24 05:13:24;;;;;;;9.73;8.73;;;;;;;;;;5094311;28;20016;-73
2021/06/24 05:15:50;;;;;;;9.35;8.38;;;;;;;;;;5093830;28;20046;-73
2021/06/24 05:18:16;;;;;;;11.18;8.80;;;;;;;;;;5093591;28;20027;-73
2021/06/24 05:20:46;;;;;;;10.48;8.93;;;;;;;;;;5093194;28;20428;-73
2021/06/24 05:23:16;;;;;;;10.55;8.98;;;;;;;;;;5094047;28;20028;-73
2021/06/24 05:25:42;;;;;;;11.27;9.02;;;;;;;;;;5092792;28;20050;-73
2021/06/24 05:28:08;;;;;;;9.68;8.63;;;;;;;;;;5093750;28;20544;-73
2021/06/24 05:30:34;;;;;;;11.50;9.40;;;;;;;;;;5093161;28;20036;-73
2021/06/24 05:33:00;;;;;;;11.00;9.23;;;;;;;;;;5093592;28;20051;-72
2021/06/24 05:35:26;;;;;;;10.70;9.05;;;;;;;;;;5093460;28;20067;-73
2021/06/24 05:37:52;;;;;;;10.40;8.93;;;;;;;;;;5093421;28;20502;-73
2021/06/24 05:40:18;;;;;;;11.05;9.38;;;;;;;;;;5093437;28;20093;-73
2021/06/24 05:42:43;;;;;;;12.90;9.32;;;;;;;;;;5093722;28;20356;-73
2021/06/24 05:45:10;;;;;;;10.02;8.95;;;;;;;;;;5093287;28;20028;-73
2021/06/24 05:47:35;;;;;;;11.07;9.57;;;;;;;;;;5093820;28;20126;-73
2021/06/24 05:50:01;;;;;;;10.93;9.05;;;;;;;;;;5093258;28;20111;-72
2021/06/24 05:52:26;;;;;;;11.68;9.93;;;;;;;;;;5091767;28;20379;-73
2021/06/24 05:54:52;;;;;;;11.55;9.75;;;;;;;;;;5091791;28;20035;-73
2021/06/24 05:57:18;;;;;;;10.77;8.93;;;;;;;;;;5093278;28;20387;-73
2021/06/24 05:59:43;;;;;;;10.77;8.32;;;;;;;;;;5092764;28;20036;-73
2021/06/24 06:02:09;;;;;;;11.40;9.45;;;;;;;;;;5092905;28;20060;-73
2021/06/24 06:04:34;;;;;;;9.95;8.75;;;;;;;;;;5092634;28;20034;-73
2021/06/24 06:06:59;;;;;;;11.80;9.43;;;;;;;;;;5094973;28;20107;-73
2021/06/24 06:09:25;;;;;;;12.00;9.13;;;;;;;;;;5097091;28;20024;-73
2021/06/24 06:11:51;;;;;;;11.85;9.80;;;;;;;;;;5090339;28;20085;-72
2021/06/24 06:14:17;;;;;;;10.63;8.70;;;;;;;;;;5091801;28;20024;-73
2021/06/24 06:16:45;;;;;;;10.05;8.80;;;;;;;;;;5090820;28;20028;-72
2021/06/24 06:19:12;;;;;;;11.50;9.27;;;;;;;;;;5091362;28;20027;-72
2021/06/24 06:21:38;;;;;;;13.15;9.80;;;;;;;;;;5092520;28;20435;-72
2021/06/24 06:24:04;;;;;;;10.25;9.10;;;;;;;;;;5092441;28;20031;-72
2021/06/24 06:26:29;;;;;;;9.57;8.57;;;;;;;;;;5089792;28;20035;-70
2021/06/24 06:28:55;;;;;;;10.10;8.55;;;;;;;;;;5092467;28;20019;-72
2021/06/24 06:31:22;;;;;;;10.18;9.18;;;;;;;;;;5091661;28;20099;-72
2021/06/24 06:33:50;;;;;;;10.30;9.27;;;;;;;;;;5091545;28;20024;-71
2021/06/24 06:36:15;;;;;;;10.25;9.15;;;;;;;;;;5093407;28;20447;-71
2021/06/24 06:38:41;;;;;;;10.07;8.60;;;;;;;;;;5093175;28;20058;-72
2021/06/24 06:41:08;;;;;;;9.80;8.80;;;;;;;;;;5092376;28;20506;-73
2021/06/24 06:43:33;;;;;;;11.93;9.77;;;;;;;;;;5092056;28;20035;-73
2021/06/24 06:45:59;;;;;;;10.27;8.45;;;;;;;;;;5092341;28;20391;-73
2021/06/24 06:48:25;;;;;;;10.57;9.40;;;;;;;;;;5105817;28;20152;-72
2021/06/24 06:50:50;;;;;;;10.70;8.77;;;;;;;;;;5094377;28;20103;-73
2021/06/24 06:53:16;;;;;;;9.85;8.38;;;;;;;;;;5092460;28;20589;-73
2021/06/24 06:55:42;;;;;;;9.80;8.32;;;;;;;;;;5092514;28;20024;-71
2021/06/24 06:58:08;;;;;;;10.07;8.55;;;;;;;;;;5096150;28;20032;-74
2021/06/24 07:00:34;;;;;;;10.95;8.65;;;;;;;;;;5098835;28;20036;-72
2021/06/24 07:03:00;;;;;;;9.18;8.15;;;;;;;;;;5092182;28;20027;-74
2021/06/24 07:05:26;;;;;;;10.73;8.32;;;;;;;;;;5091949;28;20032;-75
2021/06/24 07:07:52;;;;;;;11.00;8.35;;;;;;;;;;5093315;28;20111;-71
2021/06/24 07:10:18;;;;;;;9.68;8.50;;;;;;;;;;5092046;28;20028;-72
2021/06/24 07:12:44;;;;;;;11.02;8.57;;;;;;;;;;5089838;28;20034;-74
2021/06/24 07:15:11;;;;;;;9.57;7.80;;;;;;;;;;5092109;28;20486;-70
2021/06/24 07:17:37;;;;;;;9.82;8.20;;;;;;;;;;5091618;28;20024;-71
2021/06/24 07:20:04;;;;;;;9.48;7.78;;;;;;;;;;5091082;28;20020;-72
2021/06/24 07:22:30;;;;;;;9.48;7.90;;;;;;;;;;5092131;28;20034;-71
2021/06/24 07:24:56;;;;;;;9.20;8.30;;;;;;;;;;5091717;28;20032;-73
2021/06/24 07:27:21;;;;;;;13.23;8.02;;;;;;;;;;5092221;28;20024;-72
2021/06/24 07:29:47;;;;;;;9.20;7.70;;;;;;;;;;5092302;28;20028;-73
2021/06/24 07:32:12;;;;;;;7.95;7.15;;;;;;;;;;5091236;28;20088;-71
2021/06/24 07:34:38;;;;;;;8.30;7.50;;;;;;;;;;5093265;28;20428;-72
2021/06/24 07:37:03;;;;;;;8.00;6.93;;;;;;;;;;5093259;28;20379;-72
2021/06/24 07:39:30;;;;;;;7.82;7.07;;;;;;;;;;5091560;28;20020;-72
2021/06/24 07:41:56;;;;;;;8.95;7.28;;;;;;;;;;5091374;28;20082;-76
2021/06/24 07:44:21;;;;;;;8.38;7.10;;;;;;;;;;5091831;28;20457;-75
2021/06/24 07:46:46;;;;;;;8.18;7.38;;;;;;;;;;5092137;28;20032;-74
2021/06/24 07:49:12;;;;;;;8.63;7.70;;;;;;;;;;5091099;28;20153;-75
2021/06/24 07:51:38;;;;;;;8.55;7.50;;;;;;;;;;5091351;28;20050;-75
2021/06/24 07:54:03;;;;;;;9.20;7.22;;;;;;;;;;5090563;28;20028;-75
2021/06/24 07:56:29;;;;;;;7.90;7.10;;;;;;;;;;5091054;28;20035;-75
2021/06/24 07:58:55;;;;;;;7.65;6.95;;;;;;;;;;5090990;28;20072;-75
2021/06/24 08:01:20;;;;;;;11.32;7.70;;;;;;;;;;5091063;28;20048;-75
2021/06/24 08:03:46;;;;;;;11.52;7.45;;;;;;;;;;5091527;28;20032;-74
2021/06/24 08:06:11;;;;;;;8.07;7.28;;;;;;;;;;5091137;28;20016;-75
2021/06/24 08:08:37;;;;;;;8.70;7.63;;;;;;;;;;5090783;28;20055;-76
2021/06/24 08:11:03;;;;;;;8.43;7.47;;;;;;;;;;5091826;28;20032;-78
2021/06/24 08:13:29;;;;;;;10.45;7.13;;;;;;;;;;5091709;28;20419;-77
2021/06/24 08:15:56;;;;;;;9.23;6.95;;;;;;;;;;5092267;28;20364;-81
2021/06/24 08:18:23;;;;;;;7.97;7.15;;;;;;;;;;5094602;28;20497;-75
2021/06/24 08:20:50;;;;;;;9.45;7.25;;;;;;;;;;5095386;28;20044;-76
2021/06/24 08:23:17;;;;;;;11.52;7.50;;;;;;;;;;5095635;28;20428;-75
2021/06/24 08:25:43;;;;;;;8.93;7.45;;;;;;;;;;5095642;28;20028;-75
2021/06/24 08:28:10;;;;;;;8.63;7.50;;;;;;;;;;5095626;28;20024;-75
2021/06/24 08:30:37;;;;;;;8.20;7.40;;;;;;;;;;5094398;28;20032;-75
2021/06/24 08:33:03;;;;;;;8.15;7.30;;;;;;;;;;5094779;28;20023;-75
2021/06/24 08:35:29;;;;;;;7.70;6.90;;;;;;;;;;5105594;28;20133;-75
2021/06/24 08:37:55;;;;;;;7.75;6.80;;;;;;;;;;5108954;28;20624;-75
2021/06/24 08:40:20;;;;;;;7.53;6.70;;;;;;;;;;5095702;28;20367;-75
2021/06/24 08:42:46;;;;;;;7.45;6.68;;;;;;;;;;5094394;28;20061;-75
2021/06/24 08:45:12;;;;;;;8.65;7.75;;;;;;;;;;5094791;28;20023;-75
2021/06/24 08:47:42;;;;;;;8.15;7.45;;;;;;;;;;5094653;28;20032;-75
2021/06/24 08:50:09;;;;;;;9.00;7.22;;;;;;;;;;5094728;28;20432;-75
2021/06/24 08:52:35;;;;;;;9.13;7.55;;;;;;;;;;5094074;28;20674;-75
2021/06/24 08:55:01;;;;;;;8.57;7.57;;;;;;;;;;5094782;28;20102;-75
2021/06/24 08:57:30;;;;;;;7.65;6.88;;;;;;;;;;5094937;28;20051;-74
2021/06/24 08:59:58;;;;;;;9.30;7.32;;;;;;;;;;5094105;28;20043;-75
2021/06/24 09:02:44;;;;;;;8.27;7.45;;;;;;;;;;5094782;28;20020;-76
2021/06/24 09:05:11;;;;;;;9.77;7.75;;;;;;;;;;5094411;28;20484;-75
2021/06/24 09:07:53;;;;;;;10.88;7.50;;;;;;;;;;5097263;28;20515;-75
2021/06/24 09:10:21;;;;;;;8.88;7.63;;;;;;;;;;5093939;28;20020;-74
2021/06/24 09:13:02;;;;;;;12.20;7.78;;;;;;;;;;5092828;28;20038;-74
2021/06/24 09:15:35;;;;;;;9.27;7.53;;;;;;;;;;5093685;28;20024;-74
2021/06/24 09:18:01;;;;;;;8.70;7.75;;;;;;;;;;5092060;28;20043;-76
2021/06/24 09:20:27;;;;;;;8.77;7.88;;;;;;;;;;5094241;28;20024;-76
2021/06/24 09:23:06;;;;;;;8.05;7.10;;;;;;;;;;5094593;28;20094;-74
2021/06/24 09:25:32;;;;;;;8.85;7.95;;;;;;;;;;5093474;28;20107;-75
2021/06/24 09:27:57;;;;;;;8.07;7.00;;;;;;;;;;5093396;28;20107;-74
2021/06/24 09:30:31;;;;;;;9.00;7.63;;;;;;;;;;5093832;28;20028;-75
2021/06/24 09:32:56;;;;;;;9.00;7.55;;;;;;;;;;5093640;28;20040;-76
2021/06/24 09:35:28;;;;;;;8.98;7.32;;;;;;;;;;5103104;28;20023;-74
2021/06/24 09:38:07;;;;;;;8.05;7.25;;;;;;;;;;5108269;28;20451;-75
2021/06/24 09:40:38;;;;;;;11.07;7.95;;;;;;;;;;5073992;28;20017;-74
2021/06/24 09:43:03;;;;;;;9.07;7.93;;;;;;;;;;5090296;28;20020;-75
2021/06/24 09:45:29;;;;;;;9.23;7.18;;;;;;;;;;5093342;28;20490;-75
2021/06/24 09:48:12;;;;;;;8.88;7.88;;;;;;;;;;5093281;28;20574;-76
2021/06/24 09:50:40;;;;;;;10.40;8.18;;;;;;;;;;5093143;28;20020;-75
2021/06/24 09:53:13;;;;;;;9.98;8.10;;;;;;;;;;5094005;28;20458;-75
2021/06/24 09:55:40;;;;;;;9.02;8.13;;;;;;;;;;5093564;28;20056;-75
2021/06/24 09:58:17;;;;;;;11.40;8.05;;;;;;;;;;5092683;28;20028;-75
2021/06/24 10:00:54;;;;;;;10.38;8.13;;;;;;;;;;5092627;28;20114;-75
2021/06/24 10:03:20;;;;;;;9.40;8.45;;;;;;;;;;5092799;28;20051;-75
2021/06/24 10:05:48;;;;;;;8.57;7.65;;;;;;;;;;5093041;28;20024;-74
2021/06/24 10:08:14;;;;;;;9.57;8.57;;;;;;;;;;5093205;28;20066;-77
2021/06/24 10:10:42;;;;;;;8.85;7.95;;;;;;;;;;5093351;28;20024;-75
2021/06/24 10:13:09;;;;;;;9.40;8.40;;;;;;;;;;5093106;28;20062;-75
2021/06/24 10:15:35;;;;;;;8.50;7.38;;;;;;;;;;5092734;28;20027;-75
2021/06/24 10:18:02;;;;;;;7.70;6.38;;;;;;;;;;5092043;28;20028;-74
2021/06/24 10:20:29;;;;;;;7.57;6.88;;;;;;;;;;5096851;28;20026;-77
2021/06/24 10:23:15;;;;;;;8.02;7.07;;;;;;;;;;5110771;28;20035;-75
2021/06/24 10:25:43;;;;;;;7.50;6.80;;;;;;;;;;5093830;28;20475;-79
2021/06/24 10:28:10;;;;;;;7.47;6.78;;;;;;;;;;5094427;27;20036;-75
2021/06/24 10:30:41;;;;;;;7.80;7.00;;;;;;;;;;5091528;28;20471;-77
2021/06/24 10:33:12;;;;;;;7.80;7.00;;;;;;;;;;5091672;28;20027;-75
2021/06/24 10:35:40;;;;;;;8.55;6.90;;;;;;;;;;5101668;28;20505;-72
2021/06/24 10:38:07;;;;;;;7.78;6.68;;;;;;;;;;5098389;28;20463;-75
2021/06/24 10:40:41;;;;;;;7.90;7.05;;;;;;;;;;5092953;28;20032;-76
2021/06/24 10:43:06;;;;;;;7.47;6.68;;;;;;;;;;5092820;28;20035;-75
2021/06/24 10:45:33;;;;;;;10.55;7.20;;;;;;;;;;5093035;28;20024;-75
2021/06/24 10:48:28;;;;;;;7.63;6.50;;;;;;;;;;5092033;28;20035;-75
2021/06/24 10:51:01;;;;;;;9.07;6.60;;;;;;;;;;5084941;28;20372;-75
2021/06/24 10:53:30;;;;;;;7.68;6.88;;;;;;;;;;5090760;28;20031;-75
2021/06/24 10:55:59;;;;;;;9.75;6.78;;;;;;;;;;5090094;28;20024;-75
2021/06/24 10:58:27;;;;;;;9.35;6.28;;;;;;;;;;5089784;28;20028;-77
2021/06/24 11:00:54;;;;;;;6.15;4.63;;;;;;;;;;5091955;28;20035;-75
2021/06/24 11:03:31;;;;;;;5.88;4.43;;;;;;;;;;5092535;28;20459;-75
2021/06/24 11:06:10;;;;;;;6.25;4.63;;;;;;;;;;5092219;28;20067;-76
2021/06/24 11:08:39;;;;;;;5.43;4.32;;;;;;;;;;5100095;28;20047;-75
2021/06/24 11:11:10;;;;;;;8.20;4.20;;;;;;;;;;5091973;28;20058;-76
2021/06/24 11:13:39;;;;;;;4.60;4.10;;;;;;;;;;5092415;28;20016;-78
2021/06/24 11:16:10;;;;;;;6.22;4.00;;;;;;;;;;5092801;28;20421;-78
2021/06/24 11:18:36;;;;;;;5.40;4.55;;;;;;;;;;5092530;28;20732;-77
2021/06/24 11:21:10;;;;;;;4.57;4.03;;;;;;;;;;5091408;28;20020;-76
2021/06/24 11:23:41;;;;;;;6.18;4.10;;;;;;;;;;5091399;28;20081;-76
2021/06/24 11:26:17;;;;;;;4.38;3.97;;;;;;;;;;5090909;28;20024;-76
2021/06/24 11:31:19;;;;;;;4.22;3.83;;;;;;;;;;5091158;28;20548;-77
2021/06/24 11:34:10;;;;;;;5.53;4.05;;;;;;;;;;5091427;28;20467;-76
2021/06/24 11:36:36;;;;;;;4.13;3.50;;;;;;;;;;5110702;28;20023;-77
2021/06/24 11:39:03;;;;;;;4.72;3.78;;;;;;;;;;5111649;28;20024;-77
2021/06/24 11:41:28;;;;;;;6.65;4.00;;;;;;;;;;5111435;28;20110;-76
2021/06/24 11:44:02;;;;;;;3.97;3.58;;;;;;;;;;5111661;28;20447;-77
2021/06/24 11:46:30;;;;;;;7.20;4.00;;;;;;;;;;5110102;28;20024;-76
2021/06/24 11:49:13;;;;;;;4.20;3.80;;;;;;;;;;5111336;28;20048;-75
2021/06/24 12:00:28;;;;;;;4.93;3.92;;;;;;;;;;5087279;28;20051;-75
2021/06/24 12:05:54;;;;;;;7.15;5.35;;;;;;;;;;5081721;28;20123;-76
2021/06/24 12:08:24;;;;;;;5.85;5.13;;;;;;;;;;5105394;28;20098;-76
2021/06/24 12:11:10;;;;;;;6.40;5.40;;;;;;;;;;5091931;28;20045;-77
2021/06/24 12:13:38;;;;;;;10.27;6.03;;;;;;;;;;5091271;28;20115;-77
2021/06/24 12:16:04;;;;;;;6.53;5.55;;;;;;;;;;5091165;28;20060;-76
2021/06/24 12:18:37;;;;;;;6.68;5.55;;;;;;;;;;5090883;28;20472;-76
2021/06/24 12:21:14;;;;;;;6.97;5.55;;;;;;;;;;5091154;28;20020;-75
2021/06/24 12:23:45;;;;;;;5.82;5.22;;;;;;;;;;5091213;28;20379;-74
2021/06/24 12:26:12;;;;;;;5.95;5.35;;;;;;;;;;5090573;28;20039;-75
2021/06/24 12:28:39;;;;;;;6.57;5.80;;;;;;;;;;5091536;28;20446;-76
2021/06/24 12:31:07;;;;;;;7.28;5.15;;;;;;;;;;5091252;28;20035;-74
2021/06/24 12:33:33;;;;;;;10.02;5.68;;;;;;;;;;5090901;28;20042;-75
2021/06/24 12:35:59;;;;;;;6.28;5.60;;;;;;;;;;5090048;28;20032;-76
2021/06/24 12:38:29;;;;;;;6.90;4.45;;;;;;;;;;5090993;28;20028;-76
2021/06/24 12:40:57;;;;;;;6.55;4.20;;;;;;;;;;5091143;28;20028;-75
2021/06/24 12:43:28;;;;;;;4.50;4.00;;;;;;;;;;5090519;28;20019;-75
2021/06/24 12:45:56;;;;;;;6.05;4.03;;;;;;;;;;5089381;28;20040;-76
2021/06/24 12:48:29;;;;;;;4.45;4.05;;;;;;;;;;5090949;28;20469;-76
2021/06/24 12:50:57;;;;;;;4.93;4.05;;;;;;;;;;5090515;28;20478;-76
2021/06/24 12:53:35;;;;;;;5.63;4.00;;;;;;;;;;5091310;28;20103;-75
2021/06/24 12:56:03;;;;;;;7.72;3.50;;;;;;;;;;5092322;28;20119;-80
2021/06/24 12:58:28;;;;;;;5.82;3.50;;;;;;;;;;5090837;28;20027;-76
2021/06/24 13:01:15;;;;;;;5.15;3.63;;;;;;;;;;5091385;28;20024;-78
2021/06/24 13:03:40;;;;;;;7.35;3.50;;;;;;;;;;5091894;28;20077;-77
2021/06/24 13:06:27;;;;;;;6.60;3.33;;;;;;;;;;5093897;28;20032;-76
2021/06/24 13:09:16;;;;;;;6.03;3.40;;;;;;;;;;5094040;28;20043;-76
2021/06/24 13:12:04;;;;;;;4.60;3.90;;;;;;;;;;5094048;28;20044;-76
2021/06/24 13:14:31;;;;;;;4.13;3.40;;;;;;;;;;5090921;28;20016;-76
2021/06/24 13:17:01;;;;;;;5.15;3.35;;;;;;;;;;5094288;28;20028;-73
2021/06/24 13:19:33;;;;;;;5.10;3.47;;;;;;;;;;5092693;28;20048;-75
2021/06/24 13:22:03;;;;;;;6.85;3.63;;;;;;;;;;5094378;28;20395;-75
2021/06/24 13:24:36;;;;;;;5.75;3.85;;;;;;;;;;5094697;28;20081;-74
2021/06/24 13:27:11;;;;;;;3.80;3.40;;;;;;;;;;5094326;28;20024;-75
2021/06/24 13:29:38;;;;;;;5.40;3.85;;;;;;;;;;5095180;28;20077;-75
2021/06/24 13:32:04;;;;;;;5.80;3.70;;;;;;;;;;5094637;28;20020;-74
2021/06/24 13:34:31;;;;;;;9.55;3.97;;;;;;;;;;5095607;28;20443;-74
2021/06/24 13:37:13;;;;;;;6.28;3.72;;;;;;;;;;5095595;28;20061;-74
2021/06/24 13:39:39;;;;;;;5.57;3.95;;;;;;;;;;5094160;28;20028;-75
2021/06/24 13:42:05;;;;;;;6.68;4.00;;;;;;;;;;5093781;28;20050;-73
2021/06/24 13:44:31;;;;;;;6.25;3.80;;;;;;;;;;5093415;28;20034;-74
2021/06/24 13:46:57;;;;;;;4.15;3.70;;;;;;;;;;5094234;28;20107;-73
2021/06/24 13:49:24;;;;;;;6.20;3.83;;;;;;;;;;5094026;28;20134;-73
2021/06/24 13:51:52;;;;;;;6.65;4.15;;;;;;;;;;5094009;28;20020;-74
2021/06/24 13:54:23;;;;;;;5.63;4.15;;;;;;;;;;5093625;28;20024;-73
2021/06/24 13:56:51;;;;;;;5.18;3.67;;;;;;;;;;5092776;28;20178;-73
2021/06/24 13:59:17;;;;;;;5.60;3.60;;;;;;;;;;5092739;28;20075;-73
2021/06/24 14:01:45;;;;;;;7.65;3.65;;;;;;;;;;5096300;28;20060;-74
2021/06/24 14:04:10;;;;;;;6.97;3.58;;;;;;;;;;5093317;28;20485;-73
2021/06/24 14:06:37;;;;;;;6.57;3.55;;;;;;;;;;5092622;28;20028;-76
2021/06/24 14:09:14;;;;;;;4.07;3.67;;;;;;;;;;5094003;28;20371;-73
2021/06/24 14:11:42;;;;;;;6.05;3.72;;;;;;;;;;5092556;28;20382;-72
2021/06/24 14:14:09;;;;;;;4.78;3.72;;;;;;;;;;5092412;28;20032;-73
2021/06/24 14:16:36;;;;;;;4.82;3.75;;;;;;;;;;5093061;28;20448;-74
2021/06/24 14:19:04;;;;;;;5.43;3.78;;;;;;;;;;5095656;28;20066;-74
2021/06/24 14:21:30;;;;;;;7.45;4.10;;;;;;;;;;5093433;28;20051;-74
2021/06/24 14:23:57;;;;;;;6.60;3.92;;;;;;;;;;5093708;28;20479;-73
2021/06/24 14:26:28;;;;;;;7.32;3.95;;;;;;;;;;5093306;28;20027;-74
2021/06/24 14:28:54;;;;;;;5.22;3.92;;;;;;;;;;5093190;28;20035;-73
2021/06/24 14:31:20;;;;;;;5.15;4.20;;;;;;;;;;5092965;28;20118;-74
2021/06/24 14:33:47;;;;;;;8.75;4.68;;;;;;;;;;5096501;28;20103;-74
2021/06/24 14:36:13;;;;;;;6.82;4.68;;;;;;;;;;5093823;28;20580;-69
2021/06/24 14:38:40;;;;;;;6.65;4.82;;;;;;;;;;5093213;28;20529;-72
2021/06/24 14:41:06;;;;;;;7.88;5.25;;;;;;;;;;5091815;28;20020;-73
2021/06/24 14:43:33;;;;;;;6.53;5.32;;;;;;;;;;5092529;28;20031;-70
2021/06/24 14:45:58;;;;;;;7.03;5.82;;;;;;;;;;5092234;28;20025;-71
2021/06/24 14:48:24;;;;;;;7.22;6.07;;;;;;;;;;5091363;28;20043;-71
2021/06/24 14:50:51;;;;;;;7.53;5.82;;;;;;;;;;5093174;28;20107;-71
2021/06/24 14:53:17;;;;;;;7.38;6.10;;;;;;;;;;5092347;28;20514;-73
2021/06/24 14:55:43;;;;;;;11.65;6.95;;;;;;;;;;5091924;28;20032;-72